Time;durP1;ratioP1;P1;durP2;ratioP2;P2;SDS_P1;SDS_P2;PMS_P1;PMS_P2;Temp;Humidity;BMP_temperature;BMP_pressure;BME280_temperature;BME280_humidity;BME280_pressure;Samples;Min_cycle;Max_cycle;Signal;HPM_P1;HPM_P2
2023/09/01 00:02:14;;;;;;;6.10;3.70;;;20.60;87.10;;;;;;5082613;28;20229;-73
2023/09/01 00:04:41;;;;;;;5.93;3.70;;;20.60;88.40;;;;;;5071210;28;20233;-74
2023/09/01 00:07:07;;;;;;;4.80;3.67;;;20.40;87.80;;;;;;5070842;28;20225;-74
2023/09/01 00:09:36;;;;;;;4.77;3.73;;;20.40;88.40;;;;;;5072299;28;20201;-74
2023/09/01 00:12:03;;;;;;;8.00;4.13;;;20.30;88.20;;;;;;5084372;28;20239;-74
2023/09/01 00:14:30;;;;;;;5.30;3.57;;;20.30;88.60;;;;;;5077557;28;20213;-73
2023/09/01 00:16:57;;;;;;;4.50;3.50;;;20.20;88.60;;;;;;5088823;28;20260;-73
2023/09/01 00:19:24;;;;;;;5.97;3.90;;;20.20;88.90;;;;;;5081105;28;20207;-74
2023/09/01 00:21:51;;;;;;;7.43;3.43;;;20.20;89.40;;;;;;5091917;28;20571;-73
2023/09/01 00:24:18;;;;;;;5.53;3.63;;;20.10;89.40;;;;;;5086848;28;20224;-74
2023/09/01 00:26:46;;;;;;;5.30;3.63;;;20.20;89.70;;;;;;5074835;28;20576;-74
2023/09/01 00:29:13;;;;;;;3.90;3.50;;;20.20;89.70;;;;;;5088160;28;20306;-74
2023/09/01 00:31:40;;;;;;;3.80;3.27;;;20.20;89.60;;;;;;5084791;28;20205;-73
2023/09/01 00:34:07;;;;;;;3.80;3.10;;;20.20;89.60;;;;;;5081643;28;20227;-74
2023/09/01 00:36:34;;;;;;;5.20;3.67;;;20.20;89.50;;;;;;5094250;28;20714;-74
2023/09/01 00:39:00;;;;;;;5.67;3.33;;;20.20;89.70;;;;;;5093583;28;20218;-74
2023/09/01 00:41:27;;;;;;;6.73;4.00;;;20.20;89.50;;;;;;5093514;28;20228;-74
2023/09/01 00:43:55;;;;;;;4.63;3.70;;;20.10;89.50;;;;;;5084290;28;20223;-74
2023/09/01 00:46:22;;;;;;;3.77;3.43;;;20.00;90.00;;;;;;5074189;28;20243;-74
2023/09/01 00:48:49;;;;;;;7.40;3.50;;;20.00;90.10;;;;;;5075285;28;20299;-74
2023/09/01 00:51:16;;;;;;;4.57;3.40;;;20.00;90.20;;;;;;5080564;28;20197;-74
2023/09/01 00:53:43;;;;;;;4.00;3.57;;;20.00;90.20;;;;;;5094043;28;20207;-74
2023/09/01 00:56:10;;;;;;;4.87;3.00;;;20.00;90.30;;;;;;5094008;28;20212;-74
2023/09/01 00:58:39;;;;;;;4.13;2.90;;;20.00;90.40;;;;;;5086021;28;20208;-74
2023/09/01 01:01:07;;;;;;;7.40;3.30;;;20.00;90.30;;;;;;5086407;28;20231;-74
2023/09/01 01:03:34;;;;;;;5.07;3.20;;;20.00;90.40;;;;;;5091215;28;20701;-74
2023/09/01 01:06:14;;;;;;;5.70;3.40;;;19.90;90.40;;;;;;5072783;28;20210;-74
2023/09/01 01:08:54;;;;;;;5.07;3.20;;;19.90;90.60;;;;;;5084393;28;20193;-74
2023/09/01 01:11:28;;;;;;;6.67;3.50;;;19.90;90.80;;;;;;5087475;28;20199;-74
2023/09/01 01:13:59;;;;;;;4.87;3.20;;;19.90;90.80;;;;;;5089713;28;20251;-73
2023/09/01 01:16:29;;;;;;;4.17;3.47;;;20.00;90.90;;;;;;5087527;28;20224;-74
2023/09/01 01:19:00;;;;;;;3.50;3.07;;;20.00;90.70;;;;;;5087564;28;20622;-73
2023/09/01 01:21:31;;;;;;;5.47;3.13;;;20.00;90.80;;;;;;5073346;28;20240;-74
2023/09/01 01:24:00;;;;;;;4.73;2.90;;;20.00;90.90;;;;;;5084549;28;20223;-74
2023/09/01 01:26:27;;;;;;;3.90;2.77;;;20.10;90.90;;;;;;5082137;28;20255;-73
2023/09/01 01:28:54;;;;;;;4.10;2.90;;;20.10;90.80;;;;;;5082014;28;20216;-74
2023/09/01 01:31:21;;;;;;;4.67;2.97;;;20.10;90.80;;;;;;5090941;28;20576;-74
2023/09/01 01:33:54;;;;;;;3.43;2.83;;;20.20;90.70;;;;;;5076237;28;20259;-72
2023/09/01 01:36:28;;;;;;;4.40;3.20;;;20.20;90.70;;;;;;5084769;28;20209;-73
2023/09/01 01:39:04;;;;;;;4.50;2.90;;;20.20;90.80;;;;;;5091195;28;20612;-73
2023/09/01 01:41:48;;;;;;;3.17;2.83;;;20.20;90.70;;;;;;5073946;28;20376;-72
2023/09/01 01:44:18;;;;;;;4.03;3.10;;;20.20;90.80;;;;;;5088125;28;20208;-74
2023/09/01 01:46:45;;;;;;;5.10;3.30;;;20.20;90.60;;;;;;5093347;28;20193;-74
2023/09/01 01:49:12;;;;;;;6.00;3.03;;;20.30;90.70;;;;;;5081873;28;20201;-74
2023/09/01 01:51:39;;;;;;;5.50;3.13;;;20.30;90.50;;;;;;5072840;28;20220;-73
2023/09/01 01:54:07;;;;;;;5.17;3.07;;;20.30;90.50;;;;;;5072737;28;20224;-73
2023/09/01 01:56:34;;;;;;;5.73;3.20;;;20.30;90.60;;;;;;5085153;28;20599;-74
2023/09/01 01:59:04;;;;;;;3.43;2.93;;;20.30;90.70;;;;;;5072969;28;20201;-74
2023/09/01 02:01:31;;;;;;;5.27;2.90;;;20.40;90.70;;;;;;5074359;28;20301;-73
2023/09/01 02:03:58;;;;;;;5.10;3.20;;;20.30;90.70;;;;;;5092974;28;20211;-72
2023/09/01 02:06:25;;;;;;;4.10;2.73;;;20.30;90.70;;;;;;5092858;28;20568;-73
2023/09/01 02:08:52;;;;;;;3.67;2.70;;;20.40;90.70;;;;;;5084711;28;20225;-74
2023/09/01 02:11:20;;;;;;;4.77;2.80;;;20.40;90.60;;;;;;5075085;28;20200;-74
2023/09/01 02:13:46;;;;;;;5.00;3.00;;;20.40;90.60;;;;;;5037192;28;20200;-74
2023/09/01 02:16:13;;;;;;;4.00;2.73;;;20.30;90.70;;;;;;5072688;28;20201;-74
2023/09/01 02:18:41;;;;;;;4.27;2.67;;;20.40;90.70;;;;;;5091407;28;20207;-74
2023/09/01 02:21:08;;;;;;;2.93;2.40;;;20.40;90.80;;;;;;5092161;28;20228;-74
2023/09/01 02:23:35;;;;;;;3.97;3.13;;;20.50;90.80;;;;;;5081974;28;20667;-74
2023/09/01 02:26:04;;;;;;;5.00;2.83;;;20.50;90.80;;;;;;5072158;28;20221;-74
2023/09/01 02:28:32;;;;;;;5.33;3.40;;;20.50;90.80;;;;;;5076496;28;20289;-74
2023/09/01 02:31:06;;;;;;;5.47;2.67;;;20.60;90.70;;;;;;5073360;28;20204;-74
2023/09/01 02:33:32;;;;;;;5.97;3.30;;;20.60;90.70;;;;;;5091550;28;20228;-74
2023/09/01 02:36:23;;;;;;;4.60;3.17;;;20.50;90.80;;;;;;5083211;28;20288;-74
2023/09/01 02:38:50;;;;;;;4.30;2.90;;;20.60;91.10;;;;;;5089709;28;20641;-74
2023/09/01 02:41:16;;;;;;;4.40;2.90;;;20.50;90.70;;;;;;5090423;28;20203;-74
2023/09/01 02:43:45;;;;;;;3.70;2.80;;;20.60;90.90;;;;;;5076757;28;20209;-74
2023/09/01 02:46:12;;;;;;;3.60;2.60;;;20.60;90.80;;;;;;5090748;28;20279;-74
2023/09/01 02:48:39;;;;;;;4.23;2.93;;;20.50;90.80;;;;;;5073818;28;20228;-74
2023/09/01 02:51:06;;;;;;;4.00;2.80;;;20.50;90.80;;;;;;5078277;28;20264;-75
2023/09/01 02:53:33;;;;;;;3.90;3.00;;;20.50;90.90;;;;;;5078370;28;20203;-74
2023/09/01 02:56:00;;;;;;;4.87;2.87;;;20.50;90.90;;;;;;5084030;28;20676;-75
2023/09/01 02:58:27;;;;;;;4.60;2.80;;;20.50;90.90;;;;;;5092163;28;20201;-74
2023/09/01 03:00:55;;;;;;;4.90;3.17;;;20.50;91.00;;;;;;5082074;28;20213;-75
2023/09/01 03:03:22;;;;;;;4.47;2.80;;;20.50;90.90;;;;;;5010065;28;20231;-74
2023/09/01 03:05:50;;;;;;;5.90;3.00;;;20.50;91.00;;;;;;5079440;28;20197;-74
2023/09/01 03:08:18;;;;;;;5.40;3.07;;;20.50;91.10;;;;;;5071499;28;20215;-74
2023/09/01 03:10:47;;;;;;;3.43;2.50;;;20.50;91.10;;;;;;5079331;28;20232;-74
2023/09/01 03:13:14;;;;;;;3.73;2.83;;;20.60;91.10;;;;;;5088463;28;20196;-74
2023/09/01 03:15:42;;;;;;;4.20;2.40;;;20.60;91.00;;;;;;5073976;28;20216;-74
2023/09/01 03:18:11;;;;;;;4.97;2.90;;;20.70;91.00;;;;;;5070697;28;20201;-74
2023/09/01 03:20:38;;;;;;;5.13;2.87;;;20.70;91.00;;;;;;5086854;28;20291;-74
2023/09/01 03:23:05;;;;;;;3.70;2.80;;;20.70;91.30;;;;;;5091142;28;20212;-74
2023/09/01 03:25:32;;;;;;;3.87;2.60;;;20.70;90.90;;;;;;5075270;28;20251;-74
2023/09/01 03:27:59;;;;;;;3.23;2.50;;;20.80;91.00;;;;;;5080361;28;20289;-74
2023/09/01 03:30:26;;;;;;;5.07;3.10;;;20.70;91.00;;;;;;5083114;28;20207;-75
2023/09/01 03:32:53;;;;;;;3.77;2.50;;;20.70;90.90;;;;;;5089381;28;20191;-74
2023/09/01 03:35:21;;;;;;;3.53;2.80;;;20.70;91.10;;;;;;5074173;28;20236;-74
2023/09/01 03:37:48;;;;;;;6.30;2.70;;;20.70;91.10;;;;;;5071094;28;20213;-74
2023/09/01 03:40:15;;;;;;;3.80;2.70;;;20.70;91.10;;;;;;5077701;28;20254;-74
2023/09/01 03:42:42;;;;;;;4.60;3.03;;;20.80;91.00;;;;;;5083060;28;20220;-74
2023/09/01 03:45:09;;;;;;;3.63;2.80;;;20.80;91.00;;;;;;5070815;28;20232;-74
2023/09/01 03:47:36;;;;;;;3.27;2.30;;;20.80;90.90;;;;;;5075965;28;20205;-74
2023/09/01 03:50:03;;;;;;;2.97;2.43;;;20.80;90.80;;;;;;5072390;28;20201;-74
2023/09/01 03:52:31;;;;;;;4.03;2.80;;;20.80;90.80;;;;;;5074504;28;20256;-74
2023/09/01 03:54:58;;;;;;;3.57;2.37;;;20.90;90.80;;;;;;5085151;28;20219;-74
2023/09/01 03:57:25;;;;;;;3.80;2.43;;;20.90;90.70;;;;;;5084949;28;20242;-74
2023/09/01 03:59:52;;;;;;;3.03;2.27;;;20.90;90.80;;;;;;5092873;28;20243;-74
2023/09/01 04:02:19;;;;;;;4.17;2.57;;;20.90;90.70;;;;;;5093915;28;20306;-74
2023/09/01 04:04:45;;;;;;;4.33;2.80;;;20.90;90.80;;;;;;5092270;28;20564;-74
2023/09/01 04:07:12;;;;;;;3.13;2.40;;;20.90;90.80;;;;;;5084182;28;20221;-74
2023/09/01 04:09:40;;;;;;;3.93;2.63;;;21.00;90.80;;;;;;5084258;28;20208;-74
2023/09/01 04:12:08;;;;;;;2.93;2.30;;;21.00;90.80;;;;;;5085626;28;20197;-74
2023/09/01 04:14:34;;;;;;;3.37;2.33;;;21.00;90.70;;;;;;5038273;28;20209;-74
2023/09/01 04:17:01;;;;;;;3.63;2.43;;;21.00;90.50;;;;;;5073976;28;20209;-74
2023/09/01 04:19:28;;;;;;;3.17;2.50;;;21.00;90.60;;;;;;5092224;28;20244;-74
2023/09/01 04:21:55;;;;;;;3.00;2.40;;;21.10;90.70;;;;;;5084464;28;20232;-74
2023/09/01 04:24:21;;;;;;;5.73;2.60;;;21.10;90.70;;;;;;5075682;28;20239;-74
2023/09/01 04:26:50;;;;;;;2.73;2.27;;;21.10;90.60;;;;;;5094257;28;20254;-74
2023/09/01 04:29:18;;;;;;;4.00;2.40;;;21.10;90.60;;;;;;5089213;28;20211;-75
2023/09/01 04:31:44;;;;;;;2.97;2.40;;;21.10;90.70;;;;;;5094137;28;20220;-74
2023/09/01 04:34:13;;;;;;;3.83;2.20;;;21.10;90.70;;;;;;5085964;28;20193;-74
2023/09/01 04:36:40;;;;;;;2.70;2.50;;;21.10;90.70;;;;;;5073911;28;20304;-74
2023/09/01 04:39:06;;;;;;;2.50;2.30;;;21.10;90.70;;;;;;5089109;28;20756;-74
2023/09/01 04:41:33;;;;;;;2.60;2.40;;;21.10;90.60;;;;;;5073637;28;20290;-74
2023/09/01 04:44:01;;;;;;;3.77;2.40;;;21.10;90.70;;;;;;5073384;28;20573;-74
2023/09/01 04:46:28;;;;;;;4.53;2.20;;;21.10;90.60;;;;;;5076906;28;20317;-74
2023/09/01 04:48:55;;;;;;;3.47;2.23;;;21.20;90.70;;;;;;5093418;28;20556;-74
2023/09/01 04:51:22;;;;;;;3.03;1.97;;;21.20;90.60;;;;;;5092556;28;20204;-74
2023/09/01 04:53:49;;;;;;;2.83;2.23;;;21.20;90.60;;;;;;5093383;28;20221;-74
2023/09/01 04:56:16;;;;;;;2.53;2.13;;;21.20;90.50;;;;;;5093538;28;20211;-74
2023/09/01 04:58:42;;;;;;;3.07;2.00;;;21.20;90.50;;;;;;5075728;28;20213;-75
2023/09/01 05:01:11;;;;;;;2.57;1.83;;;21.20;90.50;;;;;;5074013;28;20231;-75
2023/09/01 05:03:37;;;;;;;2.83;1.93;;;21.20;90.50;;;;;;5073603;28;20231;-73
2023/09/01 05:06:07;;;;;;;3.27;2.17;;;21.20;90.60;;;;;;5073403;28;20299;-74
2023/09/01 05:08:34;;;;;;;2.17;1.70;;;21.20;90.60;;;;;;5084131;28;20300;-74
2023/09/01 05:11:01;;;;;;;3.97;2.00;;;21.10;90.60;;;;;;5080931;28;20211;-74
2023/09/01 05:13:27;;;;;;;2.53;1.80;;;21.00;90.80;;;;;;5073987;28;20205;-72
2023/09/01 05:15:54;;;;;;;1.90;1.80;;;21.00;91.00;;;;;;5077473;28;20204;-73
2023/09/01 05:18:22;;;;;;;1.83;1.57;;;21.00;91.00;;;;;;5037222;28;20208;-74
2023/09/01 05:20:49;;;;;;;2.47;1.90;;;21.00;91.20;;;;;;5091932;28;20231;-74
2023/09/01 05:23:16;;;;;;;2.40;1.80;;;21.00;91.30;;;;;;5092948;28;20220;-74
2023/09/01 05:25:43;;;;;;;3.30;1.77;;;20.90;91.50;;;;;;5087295;28;20316;-74
2023/09/01 05:28:10;;;;;;;1.90;1.70;;;20.90;91.70;;;;;;5080248;28;20224;-74
2023/09/01 05:30:37;;;;;;;1.63;1.53;;;20.90;91.90;;;;;;5085038;28;20212;-74
2023/09/01 05:33:05;;;;;;;2.13;1.60;;;20.90;92.00;;;;;;5083948;28;20215;-74
2023/09/01 05:35:33;;;;;;;2.63;1.70;;;20.90;91.90;;;;;;5074567;28;20291;-74
2023/09/01 05:38:00;;;;;;;2.53;1.63;;;20.90;92.40;;;;;;5088105;28;20205;-74
2023/09/01 05:40:26;;;;;;;2.90;1.90;;;20.90;92.20;;;;;;5076119;28;20227;-74
2023/09/01 05:42:53;;;;;;;1.60;1.50;;;20.90;92.20;;;;;;5053437;28;20592;-75
2023/09/01 05:45:20;;;;;;;1.60;1.50;;;21.00;92.30;;;;;;5072575;28;20230;-74
2023/09/01 05:47:47;;;;;;;2.17;1.60;;;21.00;92.30;;;;;;5071703;28;20224;-73
2023/09/01 05:50:14;;;;;;;2.17;1.90;;;20.90;92.20;;;;;;5072793;28;20221;-74
2023/09/01 05:52:42;;;;;;;1.80;1.70;;;21.00;92.40;;;;;;5072650;28;20201;-75
2023/09/01 05:55:09;;;;;;;2.13;1.63;;;21.00;92.50;;;;;;5085901;28;20209;-74
2023/09/01 05:57:36;;;;;;;1.60;1.50;;;21.00;92.40;;;;;;5090504;28;20216;-74
2023/09/01 06:00:04;;;;;;;3.10;1.87;;;20.90;92.60;;;;;;5071914;28;20233;-73
2023/09/01 06:02:31;;;;;;;2.37;1.83;;;20.90;92.60;;;;;;5087437;28;20213;-73
2023/09/01 06:04:58;;;;;;;3.43;1.60;;;21.00;92.70;;;;;;5073749;28;20205;-74
2023/09/01 06:07:24;;;;;;;3.13;2.00;;;21.00;92.60;;;;;;5073036;28;20655;-74
2023/09/01 06:09:52;;;;;;;1.80;1.70;;;21.10;92.60;;;;;;5053590;28;20211;-74
2023/09/01 06:12:19;;;;;;;2.87;1.93;;;21.10;92.70;;;;;;5074806;28;20204;-74
2023/09/01 06:14:47;;;;;;;3.57;2.47;;;21.20;92.60;;;;;;5075900;28;20216;-73
2023/09/01 06:17:14;;;;;;;2.57;1.60;;;21.20;92.60;;;;;;5072670;28;20204;-73
2023/09/01 06:19:41;;;;;;;2.50;1.53;;;21.30;92.70;;;;;;5072870;28;20316;-73
2023/09/01 06:22:08;;;;;;;1.97;1.53;;;21.30;92.60;;;;;;5072677;28;20545;-72
2023/09/01 06:24:35;;;;;;;2.63;1.70;;;21.30;92.70;;;;;;5086697;28;20225;-72
2023/09/01 06:27:03;;;;;;;3.40;1.70;;;21.30;92.70;;;;;;5077858;28;20221;-72
2023/09/01 06:29:30;;;;;;;2.83;1.63;;;21.40;92.70;;;;;;5086053;28;20212;-71
2023/09/01 06:31:57;;;;;;;1.93;1.30;;;21.40;92.50;;;;;;5091891;28;20216;-72
2023/09/01 06:34:23;;;;;;;2.20;1.43;;;21.40;92.40;;;;;;5090151;28;20223;-73
2023/09/01 06:36:50;;;;;;;3.17;1.90;;;21.40;92.60;;;;;;5091846;28;20204;-71
2023/09/01 06:39:18;;;;;;;1.50;1.40;;;21.40;92.60;;;;;;5092026;28;20232;-73
2023/09/01 06:41:46;;;;;;;2.00;1.60;;;21.40;92.60;;;;;;5083618;28;20204;-72
2023/09/01 06:44:14;;;;;;;2.83;1.70;;;21.40;92.70;;;;;;5070729;28;20715;-72
2023/09/01 06:46:41;;;;;;;4.13;1.40;;;21.30;92.60;;;;;;5071870;28;20203;-72
2023/09/01 06:49:08;;;;;;;2.23;1.40;;;21.30;92.80;;;;;;5071798;28;20460;-72
2023/09/01 06:51:35;;;;;;;3.07;1.70;;;21.30;92.90;;;;;;5072237;28;20224;-72
2023/09/01 06:54:02;;;;;;;2.10;1.60;;;21.40;93.00;;;;;;5072042;28;20197;-73
2023/09/01 06:56:29;;;;;;;3.13;1.60;;;21.40;92.90;;;;;;5088213;28;20218;-72
2023/09/01 06:58:56;;;;;;;1.67;1.50;;;21.50;92.90;;;;;;5091431;28;20228;-73
2023/09/01 07:01:27;;;;;;;1.67;1.47;;;21.50;92.80;;;;;;5090411;28;20216;-73
2023/09/01 07:03:54;;;;;;;2.40;1.40;;;21.50;92.90;;;;;;5055460;28;20222;-73
2023/09/01 07:06:21;;;;;;;3.70;1.60;;;21.50;92.70;;;;;;5081742;28;20302;-74
2023/09/01 07:08:48;;;;;;;1.50;1.40;;;21.50;93.10;;;;;;5086513;28;20282;-74
2023/09/01 07:11:19;;;;;;;1.90;1.23;;;21.60;92.80;;;;;;5078704;28;20202;-74
2023/09/01 07:13:46;;;;;;;1.50;1.40;;;21.70;92.80;;;;;;5073679;28;20208;-73
2023/09/01 07:16:13;;;;;;;2.57;1.47;;;21.80;92.70;;;;;;5087744;28;20214;-73
2023/09/01 07:18:41;;;;;;;1.30;1.20;;;21.70;92.70;;;;;;5069662;28;20229;-72
2023/09/01 07:21:08;;;;;;;3.37;1.13;;;21.70;92.60;;;;;;5043974;28;20219;-72
2023/09/01 07:23:35;;;;;;;1.50;1.40;;;21.70;92.70;;;;;;5073353;28;20225;-73
2023/09/01 07:26:03;;;;;;;2.83;1.83;;;21.70;92.80;;;;;;5076254;28;20224;-73
2023/09/01 07:28:30;;;;;;;2.40;1.50;;;21.80;92.80;;;;;;5093629;28;20265;-72
2023/09/01 07:30:57;;;;;;;2.33;1.47;;;21.80;92.50;;;;;;5092537;28;20204;-73
2023/09/01 07:33:24;;;;;;;2.10;1.40;;;21.80;92.30;;;;;;5095267;28;20470;-72
2023/09/01 07:35:53;;;;;;;2.20;1.53;;;21.90;92.40;;;;;;5092906;28;20440;-72
2023/09/01 07:38:19;;;;;;;1.20;1.10;;;22.00;92.30;;;;;;5077602;28;20224;-72
2023/09/01 07:40:46;;;;;;;1.40;1.30;;;22.00;92.10;;;;;;5074852;28;20197;-72
2023/09/01 07:43:15;;;;;;;2.80;1.50;;;22.10;92.10;;;;;;5074524;28;20227;-72
2023/09/01 07:45:42;;;;;;;1.97;1.50;;;22.20;91.70;;;;;;5078843;28;20216;-72
2023/09/01 07:48:11;;;;;;;1.50;1.40;;;22.20;91.80;;;;;;5074628;28;20291;-72
2023/09/01 07:50:38;;;;;;;1.87;1.40;;;22.30;91.70;;;;;;5079264;28;20200;-73
2023/09/01 07:53:06;;;;;;;1.67;1.30;;;22.40;91.40;;;;;;5081843;28;20197;-72
2023/09/01 07:55:33;;;;;;;1.60;1.17;;;22.40;91.40;;;;;;5074116;28;20211;-73
2023/09/01 07:58:00;;;;;;;1.70;1.60;;;22.40;91.40;;;;;;5073779;28;20228;-73
2023/09/01 08:00:27;;;;;;;2.87;1.53;;;22.50;91.30;;;;;;5074675;28;20255;-71
2023/09/01 08:02:53;;;;;;;2.43;1.70;;;22.60;91.20;;;;;;5074125;28;20295;-73
2023/09/01 08:05:20;;;;;;;1.83;1.43;;;22.60;91.20;;;;;;5074192;28;20590;-71
2023/09/01 08:07:49;;;;;;;2.63;1.70;;;22.70;91.10;;;;;;5074519;28;20213;-72
2023/09/01 08:10:17;;;;;;;3.83;1.80;;;22.70;90.90;;;;;;5085375;28;20624;-72
2023/09/01 08:12:44;;;;;;;1.77;1.30;;;22.80;90.70;;;;;;5079874;28;20212;-72
2023/09/01 08:15:11;;;;;;;2.00;1.57;;;22.80;90.60;;;;;;5074309;28;20201;-72
2023/09/01 08:17:38;;;;;;;3.17;1.67;;;22.90;90.60;;;;;;5073642;28;20304;-72
2023/09/01 08:20:06;;;;;;;1.90;1.70;;;23.00;90.30;;;;;;5073962;28;20205;-72
2023/09/01 08:22:33;;;;;;;1.77;1.57;;;23.10;90.30;;;;;;5076776;28;20251;-72
2023/09/01 08:25:01;;;;;;;4.00;1.50;;;23.20;90.30;;;;;;5075339;28;20231;-72
2023/09/01 08:27:29;;;;;;;2.13;1.30;;;23.30;90.00;;;;;;5078100;28;20661;-72
2023/09/01 08:29:57;;;;;;;2.97;1.70;;;23.30;89.70;;;;;;5087176;28;20368;-72
2023/09/01 08:32:24;;;;;;;1.80;1.40;;;23.40;89.30;;;;;;5080866;28;20208;-73
2023/09/01 08:34:50;;;;;;;2.63;1.60;;;23.40;89.20;;;;;;5083012;28;20316;-72
2023/09/01 08:37:18;;;;;;;3.97;1.80;;;23.50;89.20;;;;;;5084592;28;20692;-73
2023/09/01 08:39:45;;;;;;;1.80;1.50;;;23.50;88.90;;;;;;5085795;28;20192;-73
2023/09/01 08:42:12;;;;;;;1.80;1.20;;;23.50;88.50;;;;;;5089219;28;20247;-72
2023/09/01 08:44:42;;;;;;;1.60;1.47;;;23.50;88.50;;;;;;5091469;28;20224;-72
2023/09/01 08:47:10;;;;;;;1.30;1.10;;;23.50;88.10;;;;;;5089382;28;20656;-71
2023/09/01 08:49:38;;;;;;;2.47;1.30;;;23.60;88.30;;;;;;5082650;28;20225;-73
2023/09/01 08:52:06;;;;;;;2.10;1.50;;;23.70;87.70;;;;;;5074895;28;20212;-72
2023/09/01 08:54:36;;;;;;;1.40;1.30;;;23.70;87.50;;;;;;5075066;28;20307;-72
2023/09/01 08:57:04;;;;;;;2.43;1.20;;;23.80;87.90;;;;;;5073818;28;20312;-72
2023/09/01 08:59:31;;;;;;;1.93;1.20;;;23.80;87.40;;;;;;5073612;28;20641;-72
2023/09/01 09:02:00;;;;;;;1.63;1.10;;;23.70;87.20;;;;;;5081780;28;20307;-72
2023/09/01 09:04:27;;;;;;;1.40;1.30;;;23.70;87.20;;;;;;5084807;28;20218;-72
2023/09/01 09:06:54;;;;;;;2.83;1.27;;;23.80;87.10;;;;;;5079726;28;20287;-72
2023/09/01 09:09:21;;;;;;;2.40;1.53;;;23.80;86.90;;;;;;5072657;28;20229;-72
2023/09/01 09:11:57;;;;;;;1.90;1.20;;;23.80;87.30;;;;;;5076852;28;20210;-72
2023/09/01 09:14:25;;;;;;;1.00;1.00;;;23.80;86.70;;;;;;5073219;28;20256;-72
2023/09/01 09:16:52;;;;;;;1.50;1.40;;;23.80;86.40;;;;;;5037535;28;20208;-72
2023/09/01 09:19:20;;;;;;;1.53;1.30;;;23.80;87.20;;;;;;5073122;28;20524;-73
2023/09/01 09:21:48;;;;;;;1.63;1.07;;;23.80;87.30;;;;;;5077329;28;20256;-72
2023/09/01 09:24:14;;;;;;;1.27;1.17;;;23.90;87.00;;;;;;5072560;28;20315;-72
2023/09/01 09:26:41;;;;;;;3.40;1.30;;;23.90;86.90;;;;;;5072994;28;20295;-72
2023/09/01 09:29:11;;;;;;;2.07;1.20;;;24.00;87.20;;;;;;5072719;28;20326;-72
2023/09/01 09:31:40;;;;;;;1.30;1.20;;;24.00;86.80;;;;;;5074034;28;20205;-72
2023/09/01 09:34:18;;;;;;;2.57;1.33;;;24.10;87.40;;;;;;5076752;28;20209;-71
2023/09/01 09:36:47;;;;;;;1.40;1.30;;;24.10;86.10;;;;;;5072333;28;20231;-72
2023/09/01 09:39:37;;;;;;;1.10;0.97;;;24.00;85.60;;;;;;5081102;28;20690;-71
2023/09/01 09:42:05;;;;;;;1.37;1.20;;;24.00;86.10;;;;;;5054263;28;20224;-72
2023/09/01 09:44:34;;;;;;;1.60;1.50;;;24.00;85.60;;;;;;5075709;28;20303;-73
2023/09/01 09:47:01;;;;;;;1.60;1.10;;;24.10;86.30;;;;;;5079232;28;20653;-72
2023/09/01 09:49:31;;;;;;;2.47;1.20;;;24.20;85.90;;;;;;5082199;28;20208;-72
2023/09/01 09:52:01;;;;;;;2.87;1.20;;;24.10;84.80;;;;;;5083454;28;20558;-72
2023/09/01 09:54:30;;;;;;;1.33;1.23;;;24.20;85.70;;;;;;5079744;28;20727;-72
2023/09/01 09:57:00;;;;;;;1.73;1.00;;;24.20;84.80;;;;;;5092904;28;20543;-71
2023/09/01 09:59:34;;;;;;;1.00;0.90;;;24.20;84.70;;;;;;5079170;28;20280;-71
2023/09/01 10:02:05;;;;;;;2.07;1.50;;;24.20;83.80;;;;;;5074324;28;20223;-72
2023/09/01 10:04:35;;;;;;;1.73;1.40;;;24.20;84.30;;;;;;5076779;28;20236;-73
2023/09/01 10:07:04;;;;;;;1.60;1.37;;;24.20;84.50;;;;;;5089085;28;20672;-72
2023/09/01 10:09:32;;;;;;;1.70;1.40;;;24.30;84.20;;;;;;5088915;28;20322;-72
2023/09/01 10:11:59;;;;;;;1.40;1.27;;;24.30;83.30;;;;;;5088081;28;20214;-72
2023/09/01 10:14:29;;;;;;;3.57;1.60;;;24.30;83.60;;;;;;5088759;28;20306;-72
2023/09/01 10:16:58;;;;;;;1.97;1.27;;;24.40;83.30;;;;;;5084526;28;20200;-72
2023/09/01 10:19:26;;;;;;;2.23;1.30;;;24.50;82.90;;;;;;5069309;28;20215;-72
2023/09/01 10:21:53;;;;;;;1.70;1.10;;;24.50;82.50;;;;;;5069504;28;20304;-73
2023/09/01 10:24:21;;;;;;;2.07;1.70;;;24.60;82.50;;;;;;5071151;28;20315;-72
2023/09/01 10:27:07;;;;;;;1.33;1.20;;;24.70;82.20;;;;;;5071258;28;20303;-72
2023/09/01 10:29:34;;;;;;;2.43;1.50;;;24.90;81.70;;;;;;5070551;28;20229;-71
2023/09/01 10:32:16;;;;;;;1.60;1.30;;;24.90;81.40;;;;;;5070962;28;20228;-71
2023/09/01 10:34:51;;;;;;;1.17;1.07;;;25.00;80.40;;;;;;5088067;28;20556;-73
2023/09/01 10:37:27;;;;;;;1.60;1.47;;;25.00;80.60;;;;;;5090774;28;20199;-72
2023/09/01 10:39:58;;;;;;;2.43;1.60;;;25.10;79.80;;;;;;5091285;28;20204;-71
2023/09/01 10:42:39;;;;;;;1.70;1.50;;;25.10;79.30;;;;;;5091117;28;20228;-71
2023/09/01 10:45:11;;;;;;;1.40;1.30;;;25.00;79.30;;;;;;5050527;28;20208;-72
2023/09/01 10:47:52;;;;;;;2.57;1.40;;;25.10;79.60;;;;;;5050658;28;20712;-72
2023/09/01 10:50:19;;;;;;;1.90;1.20;;;25.00;79.50;;;;;;5050762;28;20193;-72
2023/09/01 10:52:46;;;;;;;1.67;1.30;;;25.00;79.20;;;;;;5079397;28;20200;-72
2023/09/01 10:55:15;;;;;;;1.63;1.53;;;24.90;79.00;;;;;;5091149;28;20224;-72
2023/09/01 10:57:43;;;;;;;2.40;1.50;;;24.90;79.50;;;;;;5090500;28;20251;-72
2023/09/01 11:00:27;;;;;;;1.97;1.40;;;24.90;79.40;;;;;;5090353;28;20204;-72
2023/09/01 11:02:54;;;;;;;2.90;1.63;;;25.10;79.20;;;;;;5090519;28;20664;-72
2023/09/01 11:05:40;;;;;;;3.70;1.40;;;25.30;79.40;;;;;;5090103;28;20227;-72
2023/09/01 11:08:12;;;;;;;2.60;1.60;;;25.40;77.70;;;;;;5086037;28;20314;-74
2023/09/01 11:10:40;;;;;;;2.53;1.70;;;25.50;78.60;;;;;;5068946;28;20244;-72
2023/09/01 11:13:15;;;;;;;3.67;1.80;;;25.60;78.60;;;;;;5068890;28;20205;-72
2023/09/01 11:15:46;;;;;;;1.70;1.50;;;25.70;78.60;;;;;;5070037;28;20285;-72
2023/09/01 11:18:17;;;;;;;1.90;1.70;;;25.70;77.80;;;;;;5070128;28;20212;-72
2023/09/01 11:20:45;;;;;;;1.83;1.30;;;25.70;77.40;;;;;;5071682;28;20225;-72
2023/09/01 11:23:12;;;;;;;3.13;1.50;;;25.80;77.70;;;;;;5074087;28;20650;-72
2023/09/01 11:25:41;;;;;;;3.37;1.67;;;26.00;78.30;;;;;;5070468;28;20608;-72
2023/09/01 11:28:12;;;;;;;2.30;1.53;;;26.10;76.80;;;;;;5078765;28;20720;-72
2023/09/01 11:30:39;;;;;;;1.97;1.53;;;26.20;76.10;;;;;;5090324;28;20563;-72
2023/09/01 11:33:12;;;;;;;1.63;1.30;;;26.30;76.10;;;;;;5090650;28;20239;-72
2023/09/01 11:35:39;;;;;;;1.87;1.30;;;26.40;75.80;;;;;;5090700;28;20212;-72
2023/09/01 11:38:06;;;;;;;2.40;1.70;;;26.50;75.00;;;;;;5090798;28;20609;-71
2023/09/01 11:40:34;;;;;;;2.70;1.37;;;26.60;75.00;;;;;;5090874;28;20232;-71
2023/09/01 11:43:03;;;;;;;2.60;1.50;;;26.70;74.60;;;;;;5088047;28;20203;-72
2023/09/01 11:45:32;;;;;;;2.27;1.30;;;26.80;74.40;;;;;;5074472;28;20223;-72
2023/09/01 11:47:59;;;;;;;1.63;1.50;;;27.00;74.50;;;;;;5089378;28;20264;-73
2023/09/01 11:50:26;;;;;;;2.27;1.50;;;26.90;72.60;;;;;;5053799;28;20685;-72
2023/09/01 11:52:54;;;;;;;1.97;1.30;;;26.90;73.30;;;;;;5089867;28;20215;-73
2023/09/01 11:55:34;;;;;;;1.57;1.20;;;26.90;72.80;;;;;;5090079;28;20632;-72
2023/09/01 11:58:03;;;;;;;4.03;1.40;;;26.80;72.10;;;;;;5089786;28;20269;-72
2023/09/01 12:00:32;;;;;;;1.70;1.40;;;26.80;72.20;;;;;;5089687;28;20526;-71
2023/09/01 12:03:00;;;;;;;1.30;1.10;;;27.00;71.20;;;;;;5089476;28;20519;-73
2023/09/01 12:05:31;;;;;;;1.87;1.00;;;27.20;72.20;;;;;;5071165;28;20227;-71
2023/09/01 12:07:59;;;;;;;2.20;1.40;;;27.40;69.80;;;;;;5069541;28;20239;-72
2023/09/01 12:10:26;;;;;;;1.83;1.17;;;27.30;69.40;;;;;;5070768;28;20205;-72
2023/09/01 12:13:07;;;;;;;1.13;0.93;;;27.10;69.00;;;;;;5073028;28;20201;-72
2023/09/01 12:15:35;;;;;;;1.60;1.50;;;26.90;70.10;;;;;;5073233;28;20621;-71
2023/09/01 12:18:27;;;;;;;2.40;1.23;;;26.80;70.30;;;;;;5072910;28;20213;-72
2023/09/01 12:20:54;;;;;;;2.37;1.20;;;26.60;71.40;;;;;;5073215;28;20244;-72
2023/09/01 12:23:26;;;;;;;1.33;1.23;;;26.60;72.00;;;;;;5088334;28;20273;-72
2023/09/01 12:25:53;;;;;;;1.10;1.00;;;26.50;72.20;;;;;;5041385;28;20233;-72
2023/09/01 12:28:21;;;;;;;3.00;1.40;;;26.30;72.00;;;;;;5092848;28;20780;-71
2023/09/01 12:30:48;;;;;;;2.10;1.37;;;26.20;72.10;;;;;;5092741;28;20819;-71
2023/09/01 12:33:15;;;;;;;1.37;1.20;;;26.20;72.10;;;;;;5093051;28;20208;-72
2023/09/01 12:35:42;;;;;;;2.07;1.20;;;26.20;72.60;;;;;;5093222;28;20201;-72
2023/09/01 12:38:09;;;;;;;2.00;1.30;;;26.30;72.30;;;;;;5092432;28;20220;-71
2023/09/01 12:40:40;;;;;;;1.80;1.30;;;26.40;72.30;;;;;;5086152;28;20646;-72
2023/09/01 12:43:10;;;;;;;2.37;1.40;;;26.60;71.60;;;;;;5072179;28;20198;-71
2023/09/01 12:45:40;;;;;;;2.40;1.47;;;26.60;71.60;;;;;;5072613;28;20226;-71
2023/09/01 12:48:07;;;;;;;1.40;1.30;;;26.80;71.90;;;;;;5072558;28;20241;-72
2023/09/01 12:50:38;;;;;;;1.77;1.43;;;26.80;71.90;;;;;;5072537;28;20201;-71
2023/09/01 12:53:08;;;;;;;2.33;1.30;;;26.80;71.40;;;;;;5072672;28;20201;-72
2023/09/01 12:55:38;;;;;;;1.37;1.27;;;26.90;71.70;;;;;;5072204;28;20274;-72